createdAt,value
2022-09-12T00:29:18.929Z,0
2022-09-12T00:29:59.354Z,0
2022-09-12T00:30:39.776Z,0
2022-09-12T00:31:20.295Z,0
2022-09-12T00:32:00.868Z,0
2022-09-12T00:32:41.271Z,0
2022-09-12T00:33:21.783Z,0
2022-09-12T00:34:02.275Z,0
2022-09-12T00:34:42.792Z,0
2022-09-12T00:36:03.766Z,0
2022-09-12T00:42:48.784Z,0
2022-09-12T00:43:29.211Z,0
2022-09-12T00:44:09.663Z,0
2022-09-12T00:44:50.176Z,0
2022-09-12T00:45:30.640Z,0
2022-09-12T00:46:11.143Z,0
2022-09-12T00:46:51.546Z,0
2022-09-12T00:47:32.021Z,0
2022-09-12T00:48:12.501Z,0
2022-09-12T00:48:53.038Z,0
2022-09-12T00:49:33.460Z,0
2022-09-12T00:50:13.900Z,0
2022-09-12T00:56:24.788Z,0
2022-09-12T00:57:05.211Z,0
2022-09-12T00:57:45.701Z,0
2022-09-12T00:58:26.167Z,0
2022-09-12T00:59:06.700Z,0
2022-09-12T00:59:47.167Z,0
2022-09-12T01:00:27.863Z,0
2022-09-12T01:01:08.220Z,0
2022-09-12T01:01:48.706Z,0
2022-09-12T01:02:29.134Z,0
2022-09-12T01:10:34.805Z,0
2022-09-12T01:11:15.267Z,0
2022-09-12T01:11:55.748Z,0
2022-09-12T01:12:36.221Z,0
2022-09-12T01:13:16.828Z,0
2022-09-12T01:13:57.277Z,0
2022-09-12T01:14:37.766Z,0
2022-09-12T01:15:18.266Z,0
2022-09-12T01:15:58.751Z,0
2022-09-12T01:16:39.215Z,0
2022-09-12T01:17:19.746Z,0
2022-09-12T01:24:04.545Z,0
2022-09-12T01:24:45.140Z,0
2022-09-12T01:25:25.744Z,0
2022-09-12T01:26:06.247Z,0
2022-09-12T01:26:46.705Z,0
2022-09-12T01:27:27.174Z,0
2022-09-12T01:28:07.635Z,0
2022-09-12T01:28:48.208Z,0
2022-09-12T01:29:28.682Z,0
2022-09-12T01:30:49.784Z,0
2022-09-12T01:37:34.606Z,0
2022-09-12T01:38:15.131Z,0
2022-09-12T01:38:55.576Z,0
2022-09-12T01:39:36.087Z,0
2022-09-12T01:40:16.708Z,0
2022-09-12T01:40:57.138Z,0
2022-09-12T01:41:37.563Z,0
2022-09-12T01:42:18.046Z,0
2022-09-12T01:42:58.620Z,0
2022-09-12T01:43:39.125Z,0
2022-09-12T01:44:19.679Z,0
2022-09-12T01:51:04.451Z,0
2022-09-12T01:51:45.041Z,0
2022-09-12T01:54:58.652Z,0
2022-09-12T01:55:39.136Z,0
2022-09-12T01:56:19.627Z,0
2022-09-12T01:57:00.116Z,0
2022-09-12T01:57:40.598Z,0
2022-09-12T01:58:21.129Z,0
2022-09-12T01:59:01.600Z,0
2022-09-12T02:02:15.368Z,0
2022-09-12T02:02:55.878Z,0
2022-09-12T02:03:36.298Z,0
2022-09-12T02:04:16.854Z,0
2022-09-12T02:04:57.299Z,0
2022-09-12T02:05:37.755Z,0
2022-09-12T02:06:18.241Z,0
2022-09-12T02:06:58.762Z,0
2022-09-12T02:07:39.186Z,0
2022-09-12T02:08:19.730Z,0
2022-09-12T02:09:00.125Z,0
2022-09-12T02:15:45.321Z,0
2022-09-12T02:16:25.779Z,0
2022-09-12T02:17:06.206Z,0
2022-09-12T02:17:46.760Z,0
2022-09-12T02:18:27.222Z,0
2022-09-12T02:19:07.824Z,0
2022-09-12T02:19:48.296Z,0
2022-09-12T02:20:47.245Z,0
2022-09-12T02:21:09.165Z,0
2022-09-12T02:21:49.653Z,0
2022-09-12T02:22:30.193Z,0
2022-09-12T02:29:15.100Z,0
2022-09-12T02:32:29.256Z,0
2022-09-12T02:33:09.888Z,0
2022-09-12T02:33:50.251Z,0
2022-09-12T02:34:30.764Z,0
2022-09-12T02:35:11.946Z,0
2022-09-12T02:35:52.393Z,0
2022-09-12T02:36:32.958Z,0
2022-09-12T02:37:13.406Z,0
2022-09-12T02:44:38.637Z,0
2022-09-12T02:45:19.142Z,0
2022-09-12T02:45:59.650Z,0
2022-09-12T02:46:40.102Z,0
2022-09-12T02:47:20.588Z,0
2022-09-12T02:48:01.112Z,0
2022-09-12T02:48:41.696Z,0
2022-09-12T02:49:22.111Z,0
2022-09-12T02:50:43.073Z,0
2022-09-12T02:51:23.929Z,0
2022-09-12T02:58:08.443Z,0
2022-09-12T02:58:48.933Z,0
2022-09-12T02:59:29.412Z,0
2022-09-12T03:00:09.887Z,0
2022-09-12T03:00:50.365Z,0
2022-09-12T03:01:30.902Z,0
2022-09-12T03:02:11.421Z,0
2022-09-12T03:02:51.858Z,0
2022-09-12T03:03:32.367Z,0
2022-09-12T03:04:12.857Z,0
2022-09-12T03:04:53.290Z,0
2022-09-12T03:10:58.393Z,0
2022-09-12T03:11:38.859Z,0
2022-09-12T03:12:19.385Z,0
2022-09-12T03:12:59.889Z,0
2022-09-12T03:13:40.403Z,0
2022-09-12T03:14:20.903Z,0
2022-09-12T03:15:01.427Z,0
2022-09-12T03:15:41.894Z,0
2022-09-12T03:16:22.459Z,0
2022-09-12T03:17:02.922Z,0
2022-09-12T03:17:43.370Z,0
2022-09-12T03:25:08.690Z,0
2022-09-12T03:25:49.129Z,0
2022-09-12T03:26:29.677Z,0
2022-09-12T03:27:10.173Z,0
2022-09-12T03:27:50.592Z,0
2022-09-12T03:28:31.223Z,0
2022-09-12T03:29:11.721Z,0
2022-09-12T03:29:52.233Z,0
2022-09-12T03:30:32.726Z,0
2022-09-12T03:31:13.224Z,0
2022-09-12T03:38:38.541Z,0
2022-09-12T03:39:19.060Z,0
2022-09-12T03:39:59.539Z,0
2022-09-12T03:40:39.963Z,0
2022-09-12T03:41:20.451Z,0
2022-09-12T03:42:00.959Z,0
2022-09-12T03:42:41.381Z,0
2022-09-12T03:43:21.831Z,0
2022-09-12T03:44:02.280Z,0
2022-09-12T03:44:42.761Z,0
2022-09-12T03:45:23.242Z,0
2022-09-12T03:51:28.434Z,0
2022-09-12T03:52:08.920Z,0
2022-09-12T03:52:49.433Z,0
2022-09-12T03:53:29.888Z,0
2022-09-12T03:54:10.428Z,0
2022-09-12T03:54:50.941Z,0
2022-09-12T03:55:31.761Z,0
2022-09-12T03:56:12.231Z,0
2022-09-12T03:56:52.647Z,0
2022-09-12T03:57:33.220Z,0
2022-09-12T04:04:58.611Z,0
2022-09-12T04:05:39.089Z,0
2022-09-12T04:06:19.595Z,0
2022-09-12T04:07:00.033Z,0
2022-09-12T04:07:40.587Z,0
2022-09-12T04:08:21.003Z,0
2022-09-12T04:09:01.455Z,0
2022-09-12T04:09:41.959Z,0
2022-09-12T04:10:22.404Z,0
2022-09-12T04:11:02.919Z,0
2022-09-12T04:11:43.429Z,0
2022-09-12T04:18:28.316Z,0
2022-09-12T04:19:08.802Z,0
2022-09-12T04:19:49.342Z,0
2022-09-12T04:20:29.804Z,0
2022-09-12T04:21:10.307Z,0
2022-09-12T04:21:50.800Z,0
2022-09-12T04:22:31.264Z,0
2022-09-12T04:23:11.777Z,0
2022-09-12T04:23:52.200Z,0
2022-09-12T04:25:13.469Z,0
2022-09-12T04:31:58.496Z,4
2022-09-12T04:32:39.000Z,0
2022-09-12T04:33:19.492Z,0
2022-09-12T04:34:00.033Z,0
2022-09-12T04:34:40.537Z,4
2022-09-12T04:35:21.067Z,0
2022-09-12T04:36:01.548Z,4
2022-09-12T04:36:42.047Z,4
2022-09-12T04:37:22.566Z,4
2022-09-12T04:38:03.077Z,4
2022-09-12T04:38:43.597Z,4
2022-09-12T04:44:08.286Z,8
2022-09-12T04:44:48.777Z,8
2022-09-12T04:45:29.314Z,12
2022-09-12T04:46:10.323Z,16
2022-09-12T04:46:50.253Z,16
2022-09-12T04:50:19.501Z,28
2022-09-12T04:51:00.044Z,28
2022-09-12T04:51:40.460Z,32
2022-09-12T04:52:21.030Z,36
2022-09-12T04:53:01.517Z,40
2022-09-12T04:53:41.992Z,44
2022-09-12T04:54:22.531Z,48
2022-09-12T04:55:02.988Z,56
2022-09-12T04:55:43.495Z,60
2022-09-12T04:56:24.037Z,64
2022-09-12T05:01:09.576Z,108
2022-09-12T05:01:50.009Z,116
2022-09-12T05:02:30.428Z,124
2022-09-12T05:03:10.958Z,132
2022-09-12T05:03:51.567Z,144
2022-09-12T05:04:32.099Z,152
2022-09-12T05:05:12.596Z,164
2022-09-12T05:05:56.309Z,172
2022-09-12T05:06:33.632Z,184
2022-09-12T05:07:14.116Z,192
2022-09-12T05:07:54.567Z,200
2022-09-12T05:13:59.526Z,328
2022-09-12T05:14:40.124Z,348
2022-09-12T05:15:20.765Z,368
2022-09-12T05:16:01.301Z,388
2022-09-12T05:16:43.477Z,400
2022-09-12T05:17:23.165Z,424
2022-09-12T05:18:03.632Z,440
2022-09-12T05:18:44.309Z,468
2022-09-12T05:24:53.992Z,812
2022-09-12T05:25:30.053Z,856
2022-09-12T05:26:11.187Z,912
2022-09-12T05:26:51.822Z,964
2022-09-12T05:27:32.366Z,1040
2022-09-12T05:28:12.812Z,1092
2022-09-12T05:28:53.887Z,1168
2022-09-12T05:29:34.508Z,1248
2022-09-12T05:35:40.160Z,2076
2022-09-12T05:36:20.657Z,2100
2022-09-12T05:37:01.120Z,2108
2022-09-12T05:37:41.654Z,2120
2022-09-12T05:38:22.115Z,2188
2022-09-12T05:39:02.712Z,2348
2022-09-12T05:41:24.788Z,2964
2022-09-12T05:42:08.054Z,3080
2022-09-12T05:42:56.806Z,3340
2022-09-12T05:43:45.356Z,3620
2022-09-12T05:47:20.777Z,4136
2022-09-12T05:48:00.965Z,4072
2022-09-12T05:48:41.763Z,4132
2022-09-12T05:49:22.999Z,4428
2022-09-12T06:32:13.198Z,5480
2022-09-12T06:32:53.850Z,4488
2022-09-12T06:33:34.576Z,4076
2022-09-12T06:34:15.064Z,4448
2022-09-12T06:34:55.714Z,5328
2022-09-12T06:35:36.140Z,6104
2022-09-12T06:36:57.240Z,6792
2022-09-12T06:37:37.967Z,7232
2022-09-12T06:42:24.823Z,6612
2022-09-12T06:43:04.126Z,7120
2022-09-12T06:43:44.793Z,7252
2022-09-12T06:44:25.259Z,7116
2022-09-12T06:45:06.119Z,6780
2022-09-12T06:45:46.587Z,6524
2022-09-12T06:46:27.186Z,6612
2022-09-12T06:47:10.074Z,7452
2022-09-12T06:50:33.149Z,8824
2022-09-12T06:51:13.711Z,8696
2022-09-12T06:51:54.225Z,8556
2022-09-12T06:52:34.717Z,8020
2022-09-12T06:53:15.245Z,7844
2022-09-12T06:53:55.741Z,7456
2022-09-12T06:54:36.325Z,6728
2022-09-12T06:55:19.898Z,6112
2022-09-12T06:55:57.410Z,6632
2022-09-12T06:56:38.111Z,6524
2022-09-12T07:00:42.991Z,6084
2022-09-12T07:01:23.624Z,6056
2022-09-12T07:02:04.095Z,5920
2022-09-12T07:02:44.601Z,5876
2022-09-12T07:03:25.221Z,6068
2022-09-12T07:04:05.788Z,5876
2022-09-12T07:04:46.333Z,5780
2022-09-12T07:05:27.173Z,5504
2022-09-12T07:06:07.809Z,5668
2022-09-12T07:12:13.030Z,4604
2022-09-12T07:12:53.597Z,4516
2022-09-12T07:13:35.243Z,4248
2022-09-12T07:14:15.815Z,4128
2022-09-12T07:16:35.788Z,3680
2022-09-12T07:20:09.055Z,3336
2022-09-12T07:24:03.208Z,3784
2022-09-12T07:24:52.855Z,4024
2022-09-12T07:25:43.146Z,4560
2022-09-12T07:26:32.936Z,4744
2022-09-12T07:27:22.171Z,4940
2022-09-12T07:28:10.407Z,5344
2022-09-12T07:29:13.103Z,5348
2022-09-12T07:29:48.260Z,5432
2022-09-12T07:30:37.338Z,5636
2022-09-12T07:31:27.025Z,5456
2022-09-12T07:32:15.553Z,4696
2022-09-12T07:33:07.513Z,4124
2022-09-12T07:33:56.251Z,3572
2022-09-12T07:34:50.245Z,4072
2022-09-12T07:35:39.036Z,4152
2022-09-12T07:36:27.764Z,3896
2022-09-12T07:37:20.792Z,3948
2022-09-12T07:40:59.714Z,3740
2022-09-12T07:41:40.500Z,3700
2022-09-12T07:42:20.922Z,3548
2022-09-12T07:43:02.452Z,3448
2022-09-12T07:43:43.001Z,3384
2022-09-12T07:44:23.630Z,3400
2022-09-12T07:45:04.413Z,3476
2022-09-12T07:49:57.225Z,3280
2022-09-12T07:50:42.006Z,3228
2022-09-12T07:51:20.374Z,3360
2022-09-12T07:52:01.829Z,3464
2022-09-12T07:54:08.068Z,3388
2022-09-12T07:54:48.543Z,3180
2022-09-12T07:55:29.215Z,3212
2022-09-12T07:56:09.844Z,3216
2022-09-12T07:56:50.303Z,3136
2022-09-12T07:57:31.058Z,3036
2022-09-12T07:58:11.647Z,3020
2022-09-12T08:01:36.939Z,2944
2022-09-12T08:02:17.880Z,2912
2022-09-12T08:02:57.939Z,2872
2022-09-12T08:03:38.379Z,2856
2022-09-12T08:04:18.998Z,2864
2022-09-12T08:05:00.482Z,2872
2022-09-12T08:07:44.817Z,2904
2022-09-12T08:08:34.491Z,2880
2022-09-12T08:09:33.152Z,2872
2022-09-12T08:12:25.139Z,2900
2022-09-12T08:13:06.439Z,2920
2022-09-12T08:16:20.161Z,3180
2022-09-12T08:17:00.812Z,3212
2022-09-12T08:17:41.471Z,3320
2022-09-12T08:18:21.999Z,3316
2022-09-12T08:19:02.676Z,3316
2022-09-12T08:19:43.431Z,3324
2022-09-12T08:20:27.756Z,3360
2022-09-12T08:25:09.751Z,3208
2022-09-12T08:25:50.393Z,3148
2022-09-12T08:26:30.849Z,3088
2022-09-12T08:27:11.403Z,2996
2022-09-12T08:27:51.990Z,2932
2022-09-12T08:28:32.546Z,2868
2022-09-12T08:29:13.905Z,2788
2022-09-12T08:29:54.359Z,2716
2022-09-12T08:35:19.565Z,2288
2022-09-12T08:36:00.197Z,2296
2022-09-12T08:36:40.861Z,2352
2022-09-12T08:37:21.430Z,2432
2022-09-12T08:38:01.951Z,2476
2022-09-12T08:38:42.524Z,2476
2022-09-12T08:39:23.637Z,2456
2022-09-12T08:46:10.114Z,2296
2022-09-12T08:46:50.508Z,2232
2022-09-12T08:47:31.108Z,2200
2022-09-12T08:48:12.370Z,2192
2022-09-12T08:48:52.831Z,2236
2022-09-12T08:49:33.702Z,2208
2022-09-12T08:50:14.433Z,2232
2022-09-12T08:51:37.688Z,2212
2022-09-12T08:54:19.782Z,2188
2022-09-12T08:55:00.306Z,2236
2022-09-12T08:55:40.857Z,2260
2022-09-12T08:56:21.434Z,2260
2022-09-12T08:57:02.069Z,2256
2022-09-12T08:57:42.564Z,2248
2022-09-12T08:58:23.166Z,2220
2022-09-12T08:59:03.742Z,2208
2022-09-12T08:59:45.039Z,2208
2022-09-12T09:04:29.643Z,2236
2022-09-12T09:05:10.731Z,2228
2022-09-12T09:05:51.040Z,2212
2022-09-12T09:06:31.552Z,2200
2022-09-12T09:07:12.381Z,2168
2022-09-12T09:07:52.940Z,2148
2022-09-12T09:08:33.453Z,2140
2022-09-12T09:09:13.948Z,2124
2022-09-12T09:09:55.121Z,2112
2022-09-12T09:15:22.730Z,1976
2022-09-12T09:18:46.289Z,1896
2022-09-12T09:19:34.852Z,1876
2022-09-12T09:20:21.317Z,1856
2022-09-12T09:21:09.321Z,1848
2022-09-12T09:21:49.537Z,1836
2022-09-12T09:22:30.083Z,1820
2022-09-12T09:23:10.567Z,1776
2022-09-12T09:23:51.320Z,1752
2022-09-12T09:24:33.825Z,1736
2022-09-12T09:25:13.249Z,1744
2022-09-12T09:25:53.784Z,1736
2022-09-12T09:26:35.878Z,1720
2022-09-12T09:27:30.160Z,1708
2022-09-12T09:34:00.247Z,1616
2022-09-12T09:34:40.747Z,1616
2022-09-12T09:35:36.755Z,1608
2022-09-12T09:37:05.430Z,1588
2022-09-12T09:39:27.434Z,1568
2022-09-12T09:40:08.049Z,1568
2022-09-12T09:40:49.058Z,1532
2022-09-12T09:41:29.590Z,1536
2022-09-12T09:42:10.268Z,1532
2022-09-12T09:42:50.752Z,1528
2022-09-12T09:43:31.303Z,1520
2022-09-12T09:44:14.152Z,1540
2022-09-12T09:46:18.905Z,1524
2022-09-12T09:46:59.288Z,1528
2022-09-12T09:47:40.615Z,1508
2022-09-12T09:48:21.171Z,1508
2022-09-12T09:49:02.626Z,1496
2022-09-12T09:54:27.865Z,1436
2022-09-12T09:55:08.310Z,1432
2022-09-12T09:55:49.028Z,1448
2022-09-12T09:56:29.548Z,1452
2022-09-12T09:57:10.065Z,1456
2022-09-12T09:57:50.666Z,1460
2022-09-12T09:58:31.174Z,1460
2022-09-12T09:59:11.924Z,1472
2022-09-12T09:59:52.413Z,1464
2022-09-12T10:00:33.039Z,1460
2022-09-12T10:05:18.162Z,1440
2022-09-12T10:05:58.888Z,1440
2022-09-12T10:06:39.934Z,1436
2022-09-12T10:07:21.324Z,1436
2022-09-12T10:08:02.086Z,1428
2022-09-12T10:08:42.998Z,1424
2022-09-12T10:13:31.210Z,1376
2022-09-12T10:14:11.782Z,1356
2022-09-12T10:14:52.915Z,1348
2022-09-12T10:18:57.579Z,1360
2022-09-12T10:19:38.085Z,1360
2022-09-12T10:20:22.230Z,1372
2022-09-12T10:20:59.213Z,1364
2022-09-12T10:21:41.235Z,1360
2022-09-12T10:22:20.496Z,1360
2022-09-12T10:23:04.491Z,1348
2022-09-12T10:25:48.072Z,1356
2022-09-12T10:26:28.442Z,1352
2022-09-12T10:27:08.975Z,1352
2022-09-12T10:27:49.562Z,1352
2022-09-12T10:28:30.075Z,1336
2022-09-12T10:29:11.124Z,1336
2022-09-12T10:29:51.706Z,1328
2022-09-12T10:30:32.352Z,1324
2022-09-12T10:31:14.073Z,1324
2022-09-12T10:34:38.292Z,1376
2022-09-12T10:35:18.621Z,1380
2022-09-12T10:35:59.175Z,1364
2022-09-12T10:36:41.583Z,1356
2022-09-12T10:37:22.113Z,1352
2022-09-12T10:41:27.606Z,1344
2022-09-12T10:44:06.682Z,1320
2022-09-12T10:44:55.002Z,1316
2022-09-12T10:45:43.767Z,1308
2022-09-12T10:46:25.296Z,1296
2022-09-12T10:47:05.828Z,1288
2022-09-12T10:47:46.470Z,1292
2022-09-12T10:48:27.082Z,1296
2022-09-12T10:49:07.622Z,1296
2022-09-12T10:54:32.319Z,1304
2022-09-12T10:55:12.907Z,1304
2022-09-12T10:55:53.486Z,1304
2022-09-12T10:56:33.963Z,1304
2022-09-12T10:57:14.477Z,1280
2022-09-12T10:57:55.788Z,1288
2022-09-12T10:58:36.369Z,1288
2022-09-12T10:59:20.040Z,1296
2022-09-12T10:59:57.432Z,1288
2022-09-12T11:05:22.965Z,1304
2022-09-12T11:06:03.185Z,1312
2022-09-12T11:06:43.724Z,1312
2022-09-12T11:07:24.259Z,1312
2022-09-12T11:08:04.835Z,1304
2022-09-12T11:08:45.343Z,1304
2022-09-12T11:09:28.930Z,1296
2022-09-12T11:14:12.835Z,1248
2022-09-12T11:14:53.429Z,1220
2022-09-12T11:15:33.994Z,1224
2022-09-12T11:16:14.537Z,1228
2022-09-12T11:17:35.535Z,1220
2022-09-12T11:18:16.168Z,1220
2022-09-12T11:18:57.112Z,1228
2022-09-12T11:19:37.773Z,1236
2022-09-12T11:23:02.823Z,1244
2022-09-12T11:23:43.343Z,1236
2022-09-12T11:24:23.773Z,1212
2022-09-12T11:25:04.421Z,1204
2022-09-12T11:25:45.015Z,1196
2022-09-12T11:26:25.685Z,1192
2022-09-12T11:27:06.305Z,1196
2022-09-12T11:27:46.773Z,1188
2022-09-12T11:28:27.288Z,1196
2022-09-12T11:34:32.707Z,1192
2022-09-12T11:35:17.220Z,1196
2022-09-12T11:35:55.567Z,1200
2022-09-12T11:36:34.262Z,1204
2022-09-12T11:37:17.888Z,1204
2022-09-12T11:37:55.350Z,1208
2022-09-12T11:39:16.467Z,1200
2022-09-12T11:39:57.006Z,1192
2022-09-12T11:40:37.664Z,1188
2022-09-12T11:46:02.603Z,1184
2022-09-12T11:46:43.079Z,1184
2022-09-12T11:47:23.591Z,1180
2022-09-12T11:48:04.143Z,1196
2022-09-12T11:48:44.787Z,1204
2022-09-12T11:49:25.327Z,1208
2022-09-12T11:50:05.852Z,1212
2022-09-12T11:50:46.364Z,1216
2022-09-12T11:51:26.906Z,1220
2022-09-12T11:52:07.536Z,1216
2022-09-12T12:32:28.952Z,1108
2022-09-12T12:33:09.494Z,1104
2022-09-12T12:33:50.035Z,1104
2022-09-12T12:34:30.617Z,1104
2022-09-12T12:35:11.239Z,1100
2022-09-12T12:35:51.895Z,1096
2022-09-12T12:36:32.641Z,1092
2022-09-12T12:40:37.821Z,1060
2022-09-12T12:41:18.407Z,1064
2022-09-12T12:41:59.095Z,1064
2022-09-12T12:42:39.565Z,1068
2022-09-12T12:43:20.096Z,1060
2022-09-12T12:44:00.676Z,1056
2022-09-12T12:44:41.233Z,1060
2022-09-12T12:45:21.886Z,1060
2022-09-12T12:46:03.113Z,1052
2022-09-12T12:50:08.288Z,1052
2022-09-12T12:50:48.620Z,1052
2022-09-12T12:51:29.104Z,1052
2022-09-12T12:52:09.725Z,1052
2022-09-12T12:52:50.272Z,1040
2022-09-12T12:53:32.654Z,1032
2022-09-12T12:54:13.173Z,1024
2022-09-12T12:57:53.706Z,1016
2022-09-12T12:58:34.304Z,1020
2022-09-12T12:59:14.643Z,1020
2022-09-12T12:59:56.399Z,1028
2022-09-12T13:01:17.543Z,1028
2022-09-12T13:01:58.069Z,1024
2022-09-12T13:02:38.632Z,1024
2022-09-12T13:06:02.077Z,1036
2022-09-12T13:06:43.237Z,1040
2022-09-12T13:13:42.933Z,1004
2022-09-12T13:14:23.941Z,1016
2022-09-12T13:15:04.669Z,1016
2022-09-12T13:15:46.275Z,1012
2022-09-12T13:16:26.684Z,1020
2022-09-12T13:17:07.258Z,1024
2022-09-12T13:17:48.425Z,1028
2022-09-12T13:19:18.635Z,1020
2022-09-12T13:20:26.541Z,1028
2022-09-12T13:20:51.701Z,1032
2022-09-12T13:23:49.285Z,1044
2022-09-12T13:24:31.250Z,1048
2022-09-12T13:25:12.168Z,1044
2022-09-12T13:27:58.877Z,1036
2022-09-12T13:28:39.603Z,1044
2022-09-12T13:29:20.331Z,1044
2022-09-12T13:30:01.425Z,1048
2022-09-12T13:31:23.806Z,1052
2022-09-12T13:32:06.365Z,1052
2022-09-12T13:32:46.849Z,1056
2022-09-12T13:33:28.960Z,1052
2022-09-12T13:35:36.316Z,1056
2022-09-12T13:36:17.614Z,1056
2022-09-12T13:39:03.969Z,1060
2022-09-12T13:39:46.729Z,1056
2022-09-12T13:40:28.291Z,1060
2022-09-12T13:41:09.356Z,1064
2022-09-12T13:43:58.282Z,1088
2022-09-12T13:46:46.747Z,1096
2022-09-12T13:47:29.748Z,1080
2022-09-12T13:48:17.588Z,1072
2022-09-12T13:48:58.471Z,1056
2022-09-12T13:49:42.500Z,1052
2022-09-12T13:50:20.246Z,1064
2022-09-12T13:51:01.007Z,1064
2022-09-12T13:56:18.233Z,924
2022-09-12T13:56:58.851Z,996
2022-09-12T13:57:39.292Z,1012
2022-09-12T13:58:19.894Z,1036
2022-09-12T13:59:00.361Z,1028
2022-09-12T13:59:41.730Z,1028
2022-09-12T14:00:22.289Z,1036
2022-09-12T14:01:02.830Z,1032
2022-09-12T14:01:43.448Z,1028
2022-09-12T14:05:23.039Z,1060
2022-09-12T14:06:03.558Z,1076
2022-09-12T14:06:44.027Z,1084
2022-09-12T14:09:58.195Z,1072
2022-09-12T14:10:39.416Z,1072
2022-09-12T14:11:20.422Z,1076
2022-09-12T14:12:01.497Z,1076
2022-09-12T14:12:42.628Z,1080
2022-09-12T14:16:08.095Z,1096
2022-09-12T14:16:49.256Z,1104
2022-09-12T14:17:31.104Z,1088
2022-09-12T14:18:12.165Z,1112
2022-09-12T14:21:27.183Z,1036
2022-09-12T14:22:07.700Z,1048
2022-09-12T14:22:51.120Z,1056
2022-09-12T14:23:31.140Z,1064
2022-09-12T14:24:11.733Z,1072
2022-09-12T14:31:55.264Z,1060
2022-09-12T14:32:35.870Z,1040
2022-09-12T14:33:16.347Z,1044
2022-09-12T14:33:56.907Z,1032
2022-09-12T14:34:37.399Z,1008
2022-09-12T14:35:18.235Z,1016
2022-09-12T14:35:58.760Z,1012
2022-09-12T14:36:39.307Z,1028
2022-09-12T14:37:19.767Z,1044
2022-09-12T14:43:24.926Z,940
2022-09-12T14:44:05.449Z,940
2022-09-12T14:44:46.008Z,940
2022-09-12T14:45:26.612Z,956
2022-09-12T14:46:07.248Z,968
2022-09-12T14:46:47.697Z,988
2022-09-12T14:47:28.175Z,1028
2022-09-12T14:48:08.764Z,1032
2022-09-12T14:51:25.713Z,1040
2022-09-12T14:52:08.635Z,1044
2022-09-12T14:52:46.807Z,1032
2022-09-12T14:53:27.266Z,1008
2022-09-12T14:54:07.765Z,1016
2022-09-12T14:54:48.342Z,996
2022-09-12T14:55:28.838Z,1004
2022-09-12T14:56:09.680Z,1048
2022-09-12T14:56:50.242Z,1064
2022-09-12T14:57:30.802Z,1072
2022-09-12T14:58:11.305Z,1080
2022-09-12T15:04:56.816Z,1044
2022-09-12T15:05:37.403Z,1028
2022-09-12T15:06:18.058Z,1000
2022-09-12T15:06:58.627Z,984
2022-09-12T15:07:39.185Z,984
2022-09-12T15:08:20.117Z,984
2022-09-12T15:09:00.630Z,980
2022-09-12T15:09:45.651Z,968
2022-09-12T15:10:21.538Z,984
2022-09-12T15:16:26.749Z,984
2022-09-12T15:17:07.207Z,976
2022-09-12T15:17:47.693Z,968
2022-09-12T15:18:29.053Z,952
2022-09-12T15:19:10.459Z,956
2022-09-12T15:19:50.980Z,952
2022-09-12T15:20:31.691Z,952
2022-09-12T15:23:14.229Z,956
2022-09-12T15:23:58.166Z,964
2022-09-12T15:24:39.545Z,968
2022-09-12T15:25:20.705Z,972
2022-09-12T15:26:01.296Z,944
2022-09-12T15:29:26.489Z,840
2022-09-12T15:30:07.663Z,816
2022-09-12T15:30:48.123Z,804
2022-09-12T15:31:29.003Z,800
2022-09-12T15:32:09.919Z,796
2022-09-12T15:32:50.370Z,780
2022-09-12T15:33:30.851Z,772
2022-09-12T15:34:11.381Z,772
2022-09-12T15:38:56.357Z,864
2022-09-12T15:39:36.894Z,852
2022-09-12T15:40:17.768Z,860
2022-09-12T15:40:58.159Z,864
2022-09-12T15:42:20.177Z,860
2022-09-12T15:43:00.647Z,872
2022-09-12T15:43:41.266Z,896
2022-09-12T15:50:27.010Z,880
2022-09-12T15:51:07.493Z,872
2022-09-12T15:51:47.940Z,872
2022-09-12T15:52:28.476Z,868
2022-09-12T15:53:08.948Z,868
2022-09-12T15:53:49.440Z,864
2022-09-12T15:54:29.979Z,852
2022-09-12T15:55:10.435Z,836
2022-09-12T15:55:50.967Z,828
2022-09-12T15:56:31.469Z,816
2022-09-12T16:05:30.103Z,828
2022-09-12T16:06:10.861Z,832
2022-09-12T16:06:51.402Z,824
2022-09-12T16:07:31.922Z,824
2022-09-12T16:08:12.460Z,820
2022-09-12T16:08:53.039Z,816
2022-09-12T16:11:02.247Z,844
2022-09-12T16:11:42.897Z,840
2022-09-12T16:12:24.181Z,844
2022-09-12T16:13:05.805Z,840
2022-09-12T16:13:46.570Z,824
2022-09-12T16:17:13.053Z,808
2022-09-12T16:17:53.645Z,800
2022-09-12T16:18:36.625Z,792
2022-09-12T16:19:15.711Z,784
2022-09-12T16:19:56.372Z,780
2022-09-12T16:20:36.832Z,776
2022-09-12T16:21:17.335Z,776
2022-09-12T16:27:22.697Z,760
2022-09-12T16:28:03.177Z,764
2022-09-12T16:28:43.781Z,768
2022-09-12T16:29:24.305Z,768
2022-09-12T16:30:04.876Z,756
2022-09-12T16:30:45.420Z,756
2022-09-12T16:31:26.005Z,744
2022-09-12T16:32:06.562Z,732
2022-09-12T16:32:47.079Z,732
2022-09-12T16:38:52.001Z,696
2022-09-12T16:39:34.794Z,684
2022-09-12T16:40:15.231Z,672
2022-09-12T16:40:55.659Z,672
2022-09-12T16:42:17.103Z,656
2022-09-12T16:46:22.538Z,640
2022-09-12T16:47:03.160Z,648
2022-09-12T16:47:44.720Z,656
2022-09-12T16:48:24.961Z,660
2022-09-12T16:49:48.644Z,656
2022-09-12T16:51:12.496Z,652
2022-09-12T16:51:52.952Z,648
2022-09-12T16:52:33.502Z,640
2022-09-12T16:53:13.974Z,628
2022-09-12T16:53:54.416Z,616
2022-09-12T16:54:34.998Z,592
2022-09-12T16:55:15.551Z,576
2022-09-12T16:55:56.002Z,568
2022-09-12T16:57:17.107Z,564
2022-09-12T17:04:39.287Z,504
2022-09-12T17:05:19.753Z,500
2022-09-12T17:06:00.306Z,496
2022-09-12T17:06:41.146Z,492
2022-09-12T17:07:21.679Z,484
2022-09-12T17:08:02.339Z,484
2022-09-12T17:08:44.214Z,476
2022-09-12T17:14:49.331Z,428
2022-09-12T17:15:29.794Z,420
2022-09-12T17:16:10.663Z,412
2022-09-12T17:16:52.109Z,400
2022-09-12T17:17:31.829Z,392
2022-09-12T17:18:12.413Z,384
2022-09-12T17:21:28.429Z,348
2022-09-12T17:22:09.520Z,336
2022-09-12T17:22:49.863Z,328
2022-09-12T17:23:30.485Z,316
2022-09-12T17:24:11.091Z,308
2022-09-12T17:24:51.615Z,300
2022-09-12T17:25:32.241Z,288
2022-09-12T17:26:12.791Z,276
2022-09-12T17:33:15.659Z,176
2022-09-12T17:34:01.254Z,168
2022-09-12T17:34:41.029Z,160
2022-09-12T17:37:10.215Z,136
2022-09-12T17:37:52.345Z,128
2022-09-12T17:38:33.211Z,124
2022-09-12T17:39:15.951Z,120
2022-09-12T17:39:58.509Z,112
2022-09-12T17:40:58.375Z,108
2022-09-12T17:44:51.443Z,76
2022-09-12T17:45:31.748Z,72
2022-09-12T17:46:12.917Z,68
2022-09-12T17:46:53.488Z,64
2022-09-12T17:47:35.693Z,60
2022-09-12T17:48:17.736Z,52
2022-09-12T17:50:31.550Z,44
2022-09-12T17:51:05.696Z,36
2022-09-12T17:51:45.548Z,36
2022-09-12T17:52:26.485Z,32
2022-09-12T18:34:12.558Z,0
2022-09-12T18:34:57.566Z,0
2022-09-12T18:35:39.040Z,0
2022-09-12T18:36:20.058Z,0
2022-09-12T18:37:37.676Z,0
2022-09-12T18:38:18.502Z,0
2022-09-12T18:38:58.753Z,0
2022-09-12T18:41:42.280Z,0
2022-09-12T18:42:22.843Z,0
2022-09-12T18:43:03.401Z,0
2022-09-12T18:43:45.947Z,0
2022-09-12T18:45:59.890Z,0
2022-09-12T18:46:39.796Z,0
2022-09-12T18:47:20.206Z,0
2022-09-12T18:48:00.711Z,0
2022-09-12T18:48:41.189Z,0
2022-09-12T18:49:22.021Z,0
2022-09-12T18:50:02.950Z,0
2022-09-12T18:50:43.340Z,0
2022-09-12T18:51:23.825Z,0
2022-09-12T18:57:29.231Z,0
2022-09-12T18:58:09.695Z,0
2022-09-12T18:58:50.169Z,0
2022-09-12T18:59:30.662Z,0
2022-09-12T19:00:12.513Z,0
2022-09-12T19:00:51.687Z,0
2022-09-12T19:01:32.272Z,0
2022-09-12T19:02:12.810Z,0
2022-09-12T19:02:53.441Z,0
2022-09-12T19:03:33.862Z,0
2022-09-12T19:10:19.302Z,0
2022-09-12T19:10:59.605Z,0
2022-09-12T19:11:40.131Z,0
2022-09-12T19:12:20.623Z,0
2022-09-12T19:13:01.205Z,0
2022-09-12T19:13:41.583Z,0
2022-09-12T19:14:22.103Z,0
2022-09-12T19:15:02.623Z,0
2022-09-12T19:15:43.093Z,0
2022-09-12T19:16:23.821Z,0
2022-09-12T19:22:28.694Z,0
2022-09-12T19:23:09.060Z,0
2022-09-12T19:23:49.549Z,0
2022-09-12T19:24:30.166Z,0
2022-09-12T19:25:10.532Z,0
2022-09-12T19:25:51.086Z,0
2022-09-12T19:26:31.638Z,0
2022-09-12T19:27:13.026Z,0
2022-09-12T19:28:33.389Z,0
2022-09-12T19:29:13.866Z,0
2022-09-12T19:35:19.545Z,0
2022-09-12T19:36:00.110Z,0
2022-09-12T19:36:45.177Z,0
2022-09-12T19:37:21.017Z,0
2022-09-12T19:38:01.542Z,0
2022-09-12T19:38:41.934Z,0